sensor_id;sensor_type;location;lat;lon;timestamp;temperature;humidity
16321;DHT22;8269;50.990;4.494;2022-07-29T00:00:43;18.20;69.40
16321;DHT22;8269;50.990;4.494;2022-07-29T00:03:12;18.10;69.60
16321;DHT22;8269;50.990;4.494;2022-07-29T00:05:39;18.10;70.60
16321;DHT22;8269;50.990;4.494;2022-07-29T00:08:05;18.10;70.10
16321;DHT22;8269;50.990;4.494;2022-07-29T00:10:32;18.00;70.20
16321;DHT22;8269;50.990;4.494;2022-07-29T00:12:58;18.00;70.40
16321;DHT22;8269;50.990;4.494;2022-07-29T00:15:24;18.00;70.60
16321;DHT22;8269;50.990;4.494;2022-07-29T00:17:49;17.90;70.60
16321;DHT22;8269;50.990;4.494;2022-07-29T00:20:15;17.90;70.70
16321;DHT22;8269;50.990;4.494;2022-07-29T00:22:41;17.90;70.70
16321;DHT22;8269;50.990;4.494;2022-07-29T00:25:08;17.90;70.60
16321;DHT22;8269;50.990;4.494;2022-07-29T00:27:35;17.90;70.70
16321;DHT22;8269;50.990;4.494;2022-07-29T00:30:01;17.90;71.10
16321;DHT22;8269;50.990;4.494;2022-07-29T00:32:27;17.90;71.10
16321;DHT22;8269;50.990;4.494;2022-07-29T00:34:53;17.90;71.00
16321;DHT22;8269;50.990;4.494;2022-07-29T00:37:37;17.90;70.90
16321;DHT22;8269;50.990;4.494;2022-07-29T00:40:03;17.80;70.80
16321;DHT22;8269;50.990;4.494;2022-07-29T00:42:29;17.80;70.80
16321;DHT22;8269;50.990;4.494;2022-07-29T00:44:55;17.80;70.80
16321;DHT22;8269;50.990;4.494;2022-07-29T00:47:20;17.90;71.00
16321;DHT22;8269;50.990;4.494;2022-07-29T00:49:46;17.90;71.20
16321;DHT22;8269;50.990;4.494;2022-07-29T00:52:12;17.90;70.90
16321;DHT22;8269;50.990;4.494;2022-07-29T00:54:39;17.90;70.90
16321;DHT22;8269;50.990;4.494;2022-07-29T00:57:07;17.80;70.80
16321;DHT22;8269;50.990;4.494;2022-07-29T00:59:33;17.80;71.00
16321;DHT22;8269;50.990;4.494;2022-07-29T01:01:59;17.70;71.20
16321;DHT22;8269;50.990;4.494;2022-07-29T01:04:25;17.70;71.40
16321;DHT22;8269;50.990;4.494;2022-07-29T01:06:52;17.60;71.40
16321;DHT22;8269;50.990;4.494;2022-07-29T01:09:19;17.70;71.80
16321;DHT22;8269;50.990;4.494;2022-07-29T01:11:46;17.70;71.80
16321;DHT22;8269;50.990;4.494;2022-07-29T01:14:14;17.70;71.80
16321;DHT22;8269;50.990;4.494;2022-07-29T01:17:06;17.70;71.90
16321;DHT22;8269;50.990;4.494;2022-07-29T01:19:56;17.60;71.90
16321;DHT22;8269;50.990;4.494;2022-07-29T01:30:54;17.50;72.30
16321;DHT22;8269;50.990;4.494;2022-07-29T01:33:21;17.50;72.60
16321;DHT22;8269;50.990;4.494;2022-07-29T01:36:22;17.40;72.80
16321;DHT22;8269;50.990;4.494;2022-07-29T01:38:57;17.40;73.00
16321;DHT22;8269;50.990;4.494;2022-07-29T01:41:25;17.40;73.20
16321;DHT22;8269;50.990;4.494;2022-07-29T01:44:11;17.40;73.20
16321;DHT22;8269;50.990;4.494;2022-07-29T01:46:41;17.40;73.20
16321;DHT22;8269;50.990;4.494;2022-07-29T01:49:13;17.40;73.20
16321;DHT22;8269;50.990;4.494;2022-07-29T01:51:50;17.40;73.30
16321;DHT22;8269;50.990;4.494;2022-07-29T01:54:26;17.50;73.40
16321;DHT22;8269;50.990;4.494;2022-07-29T01:56:56;17.50;73.90
16321;DHT22;8269;50.990;4.494;2022-07-29T01:59:25;17.40;73.60
16321;DHT22;8269;50.990;4.494;2022-07-29T02:01:53;17.30;73.80
16321;DHT22;8269;50.990;4.494;2022-07-29T02:04:20;17.30;74.20
16321;DHT22;8269;50.990;4.494;2022-07-29T02:06:53;17.20;74.30
16321;DHT22;8269;50.990;4.494;2022-07-29T02:09:21;17.10;74.50
16321;DHT22;8269;50.990;4.494;2022-07-29T02:11:51;17.10;74.70
16321;DHT22;8269;50.990;4.494;2022-07-29T02:14:19;17.10;74.80
16321;DHT22;8269;50.990;4.494;2022-07-29T02:16:47;17.10;75.00
16321;DHT22;8269;50.990;4.494;2022-07-29T02:19:17;17.00;75.20
16321;DHT22;8269;50.990;4.494;2022-07-29T02:21:45;17.00;75.40
16321;DHT22;8269;50.990;4.494;2022-07-29T02:24:12;17.00;75.60
16321;DHT22;8269;50.990;4.494;2022-07-29T02:26:40;16.90;75.70
16321;DHT22;8269;50.990;4.494;2022-07-29T02:29:08;16.90;76.10
16321;DHT22;8269;50.990;4.494;2022-07-29T02:31:36;16.80;76.30
16321;DHT22;8269;50.990;4.494;2022-07-29T02:34:06;16.80;76.50
16321;DHT22;8269;50.990;4.494;2022-07-29T02:36:34;16.80;76.70
16321;DHT22;8269;50.990;4.494;2022-07-29T02:39:01;16.80;76.80
16321;DHT22;8269;50.990;4.494;2022-07-29T02:41:35;16.80;76.90
16321;DHT22;8269;50.990;4.494;2022-07-29T02:44:06;16.80;76.90
16321;DHT22;8269;50.990;4.494;2022-07-29T02:46:34;16.70;76.90
16321;DHT22;8269;50.990;4.494;2022-07-29T02:49:09;16.70;77.10
16321;DHT22;8269;50.990;4.494;2022-07-29T02:52:08;16.70;77.50
16321;DHT22;8269;50.990;4.494;2022-07-29T02:54:44;16.70;77.70
16321;DHT22;8269;50.990;4.494;2022-07-29T02:57:21;16.60;78.10
16321;DHT22;8269;50.990;4.494;2022-07-29T02:59:51;16.50;78.10
16321;DHT22;8269;50.990;4.494;2022-07-29T03:02:18;16.60;78.50
16321;DHT22;8269;50.990;4.494;2022-07-29T03:04:44;16.60;78.70
16321;DHT22;8269;50.990;4.494;2022-07-29T03:07:13;16.50;78.70
16321;DHT22;8269;50.990;4.494;2022-07-29T03:09:41;16.50;79.10
16321;DHT22;8269;50.990;4.494;2022-07-29T03:12:08;16.50;79.30
16321;DHT22;8269;50.990;4.494;2022-07-29T03:14:35;16.50;79.50
16321;DHT22;8269;50.990;4.494;2022-07-29T03:17:01;16.50;79.70
16321;DHT22;8269;50.990;4.494;2022-07-29T03:19:28;16.40;79.90
16321;DHT22;8269;50.990;4.494;2022-07-29T03:21:57;16.40;80.00
16321;DHT22;8269;50.990;4.494;2022-07-29T03:24:33;16.40;80.30
16321;DHT22;8269;50.990;4.494;2022-07-29T03:26:59;16.30;80.50
16321;DHT22;8269;50.990;4.494;2022-07-29T03:29:26;16.30;80.90
16321;DHT22;8269;50.990;4.494;2022-07-29T03:31:52;16.20;80.80
16321;DHT22;8269;50.990;4.494;2022-07-29T03:34:18;16.20;81.30
16321;DHT22;8269;50.990;4.494;2022-07-29T03:36:44;16.10;81.50
16321;DHT22;8269;50.990;4.494;2022-07-29T03:39:10;16.20;81.80
16321;DHT22;8269;50.990;4.494;2022-07-29T03:41:38;16.10;82.00
16321;DHT22;8269;50.990;4.494;2022-07-29T03:44:07;16.10;82.30
16321;DHT22;8269;50.990;4.494;2022-07-29T03:46:35;16.10;82.80
16321;DHT22;8269;50.990;4.494;2022-07-29T03:49:04;16.10;82.80
16321;DHT22;8269;50.990;4.494;2022-07-29T03:51:30;16.10;83.20
16321;DHT22;8269;50.990;4.494;2022-07-29T03:53:57;16.10;83.40
16321;DHT22;8269;50.990;4.494;2022-07-29T03:56:23;16.00;83.70
16321;DHT22;8269;50.990;4.494;2022-07-29T03:58:51;16.00;84.10
16321;DHT22;8269;50.990;4.494;2022-07-29T04:01:18;15.90;84.20
16321;DHT22;8269;50.990;4.494;2022-07-29T04:03:45;15.90;84.60
16321;DHT22;8269;50.990;4.494;2022-07-29T04:06:11;15.90;85.00
16321;DHT22;8269;50.990;4.494;2022-07-29T04:08:38;15.80;85.30
16321;DHT22;8269;50.990;4.494;2022-07-29T04:11:04;15.80;85.70
16321;DHT22;8269;50.990;4.494;2022-07-29T04:13:31;15.80;86.00
16321;DHT22;8269;50.990;4.494;2022-07-29T04:15:57;15.80;86.10
16321;DHT22;8269;50.990;4.494;2022-07-29T04:18:24;15.80;86.00
16321;DHT22;8269;50.990;4.494;2022-07-29T04:20:50;15.90;86.50
16321;DHT22;8269;50.990;4.494;2022-07-29T04:23:16;15.90;86.40
16321;DHT22;8269;50.990;4.494;2022-07-29T04:25:42;16.00;86.30
16321;DHT22;8269;50.990;4.494;2022-07-29T04:28:09;16.00;86.30
16321;DHT22;8269;50.990;4.494;2022-07-29T04:30:36;15.90;86.20
16321;DHT22;8269;50.990;4.494;2022-07-29T04:33:04;15.90;86.40
16321;DHT22;8269;50.990;4.494;2022-07-29T04:35:33;15.90;86.80
16321;DHT22;8269;50.990;4.494;2022-07-29T04:37:59;15.90;86.70
16321;DHT22;8269;50.990;4.494;2022-07-29T04:40:25;16.00;86.50
16321;DHT22;8269;50.990;4.494;2022-07-29T04:42:51;16.10;86.60
16321;DHT22;8269;50.990;4.494;2022-07-29T04:45:17;16.20;86.00
16321;DHT22;8269;50.990;4.494;2022-07-29T04:47:43;16.30;85.80
16321;DHT22;8269;50.990;4.494;2022-07-29T04:50:09;16.30;85.30
16321;DHT22;8269;50.990;4.494;2022-07-29T04:52:35;16.20;85.50
16321;DHT22;8269;50.990;4.494;2022-07-29T04:55:03;16.20;86.20
16321;DHT22;8269;50.990;4.494;2022-07-29T04:57:29;16.10;86.70
16321;DHT22;8269;50.990;4.494;2022-07-29T04:59:55;16.00;87.10
16321;DHT22;8269;50.990;4.494;2022-07-29T05:02:21;15.90;87.50
16321;DHT22;8269;50.990;4.494;2022-07-29T05:04:47;16.10;87.60
16321;DHT22;8269;50.990;4.494;2022-07-29T05:07:13;16.20;87.30
16321;DHT22;8269;50.990;4.494;2022-07-29T05:09:39;16.30;87.20
16321;DHT22;8269;50.990;4.494;2022-07-29T05:12:06;16.40;87.00
16321;DHT22;8269;50.990;4.494;2022-07-29T05:14:32;16.40;87.00
16321;DHT22;8269;50.990;4.494;2022-07-29T05:16:58;16.40;87.20
16321;DHT22;8269;50.990;4.494;2022-07-29T05:19:24;16.90;86.90
16321;DHT22;8269;50.990;4.494;2022-07-29T05:21:50;17.40;85.00
16321;DHT22;8269;50.990;4.494;2022-07-29T05:24:16;17.70;82.10
16321;DHT22;8269;50.990;4.494;2022-07-29T05:26:42;17.70;81.50
16321;DHT22;8269;50.990;4.494;2022-07-29T05:29:08;17.70;81.10
16321;DHT22;8269;50.990;4.494;2022-07-29T05:31:34;17.60;81.20
16321;DHT22;8269;50.990;4.494;2022-07-29T05:34:00;17.40;81.20
16321;DHT22;8269;50.990;4.494;2022-07-29T05:36:26;17.30;82.10
16321;DHT22;8269;50.990;4.494;2022-07-29T05:38:54;17.50;82.10
16321;DHT22;8269;50.990;4.494;2022-07-29T05:41:20;17.50;81.90
16321;DHT22;8269;50.990;4.494;2022-07-29T05:43:46;17.50;81.70
16321;DHT22;8269;50.990;4.494;2022-07-29T05:46:12;17.40;81.90
16321;DHT22;8269;50.990;4.494;2022-07-29T05:48:40;17.50;82.00
16321;DHT22;8269;50.990;4.494;2022-07-29T05:51:06;17.70;81.80
16321;DHT22;8269;50.990;4.494;2022-07-29T05:53:32;17.80;80.80
16321;DHT22;8269;50.990;4.494;2022-07-29T05:55:57;18.10;80.40
16321;DHT22;8269;50.990;4.494;2022-07-29T05:58:23;18.60;79.50
16321;DHT22;8269;50.990;4.494;2022-07-29T06:00:49;19.30;76.80
16321;DHT22;8269;50.990;4.494;2022-07-29T06:03:14;19.90;74.20
16321;DHT22;8269;50.990;4.494;2022-07-29T06:05:40;20.20;71.40
16321;DHT22;8269;50.990;4.494;2022-07-29T06:08:06;19.80;71.20
16321;DHT22;8269;50.990;4.494;2022-07-29T06:10:34;19.40;72.50
16321;DHT22;8269;50.990;4.494;2022-07-29T06:12:59;19.30;73.50
16321;DHT22;8269;50.990;4.494;2022-07-29T06:15:25;19.20;74.10
16321;DHT22;8269;50.990;4.494;2022-07-29T06:17:51;19.00;74.50
16321;DHT22;8269;50.990;4.494;2022-07-29T06:20:18;19.20;74.50
16321;DHT22;8269;50.990;4.494;2022-07-29T06:22:44;20.00;73.30
16321;DHT22;8269;50.990;4.494;2022-07-29T06:25:09;21.00;70.90
16321;DHT22;8269;50.990;4.494;2022-07-29T06:27:35;21.80;66.50
16321;DHT22;8269;50.990;4.494;2022-07-29T06:30:01;22.00;64.20
16321;DHT22;8269;50.990;4.494;2022-07-29T06:32:27;22.00;64.00
16321;DHT22;8269;50.990;4.494;2022-07-29T06:34:52;22.30;63.00
16321;DHT22;8269;50.990;4.494;2022-07-29T06:37:21;22.30;62.50
16321;DHT22;8269;50.990;4.494;2022-07-29T06:39:47;22.00;63.20
16321;DHT22;8269;50.990;4.494;2022-07-29T06:42:13;22.00;63.20
16321;DHT22;8269;50.990;4.494;2022-07-29T06:44:39;22.20;63.30
16321;DHT22;8269;50.990;4.494;2022-07-29T06:47:04;22.60;62.70
16321;DHT22;8269;50.990;4.494;2022-07-29T06:49:30;22.80;61.10
16321;DHT22;8269;50.990;4.494;2022-07-29T06:51:55;23.40;59.90
16321;DHT22;8269;50.990;4.494;2022-07-29T06:54:21;23.50;59.10
16321;DHT22;8269;50.990;4.494;2022-07-29T06:56:47;23.60;58.50
16321;DHT22;8269;50.990;4.494;2022-07-29T06:59:13;23.50;58.70
16321;DHT22;8269;50.990;4.494;2022-07-29T07:01:41;23.70;58.30
16321;DHT22;8269;50.990;4.494;2022-07-29T07:04:07;23.60;58.50
16321;DHT22;8269;50.990;4.494;2022-07-29T07:06:34;23.50;58.60
16321;DHT22;8269;50.990;4.494;2022-07-29T07:09:00;24.10;58.20
16321;DHT22;8269;50.990;4.494;2022-07-29T07:11:26;24.30;56.70
16321;DHT22;8269;50.990;4.494;2022-07-29T07:13:53;24.80;55.70
16321;DHT22;8269;50.990;4.494;2022-07-29T07:16:18;24.50;55.60
16321;DHT22;8269;50.990;4.494;2022-07-29T07:18:44;24.90;55.70
16321;DHT22;8269;50.990;4.494;2022-07-29T07:21:11;25.50;54.50
16321;DHT22;8269;50.990;4.494;2022-07-29T07:23:36;25.40;53.30
16321;DHT22;8269;50.990;4.494;2022-07-29T07:26:03;25.80;52.50
16321;DHT22;8269;50.990;4.494;2022-07-29T07:28:30;25.90;52.50
16321;DHT22;8269;50.990;4.494;2022-07-29T07:30:58;26.30;52.10
16321;DHT22;8269;50.990;4.494;2022-07-29T07:33:24;26.50;51.70
16321;DHT22;8269;50.990;4.494;2022-07-29T07:35:50;26.80;50.20
16321;DHT22;8269;50.990;4.494;2022-07-29T07:38:15;27.60;48.80
16321;DHT22;8269;50.990;4.494;2022-07-29T07:40:41;27.90;47.60
16321;DHT22;8269;50.990;4.494;2022-07-29T07:43:07;27.40;47.50
16321;DHT22;8269;50.990;4.494;2022-07-29T07:45:32;27.20;48.20
16321;DHT22;8269;50.990;4.494;2022-07-29T07:47:58;26.50;49.60
16321;DHT22;8269;50.990;4.494;2022-07-29T07:50:24;26.20;50.40
16321;DHT22;8269;50.990;4.494;2022-07-29T07:52:54;26.00;51.80
16321;DHT22;8269;50.990;4.494;2022-07-29T07:55:23;25.90;51.80
16321;DHT22;8269;50.990;4.494;2022-07-29T07:57:49;25.90;51.80
16321;DHT22;8269;50.990;4.494;2022-07-29T08:00:15;26.50;51.10
16321;DHT22;8269;50.990;4.494;2022-07-29T08:02:41;26.90;49.50
16321;DHT22;8269;50.990;4.494;2022-07-29T08:05:08;27.10;49.80
16321;DHT22;8269;50.990;4.494;2022-07-29T08:07:34;27.50;48.90
16321;DHT22;8269;50.990;4.494;2022-07-29T08:10:00;27.20;48.10
16321;DHT22;8269;50.990;4.494;2022-07-29T08:12:25;26.80;49.50
16321;DHT22;8269;50.990;4.494;2022-07-29T08:14:51;26.60;49.60
16321;DHT22;8269;50.990;4.494;2022-07-29T08:17:17;26.90;49.10
16321;DHT22;8269;50.990;4.494;2022-07-29T08:19:42;27.10;49.20
16321;DHT22;8269;50.990;4.494;2022-07-29T08:22:08;27.80;47.10
16321;DHT22;8269;50.990;4.494;2022-07-29T08:24:33;26.90;48.70
16321;DHT22;8269;50.990;4.494;2022-07-29T08:27:09;26.40;49.90
16321;DHT22;8269;50.990;4.494;2022-07-29T08:29:35;26.30;51.00
16321;DHT22;8269;50.990;4.494;2022-07-29T08:32:02;26.10;50.60
16321;DHT22;8269;50.990;4.494;2022-07-29T08:34:27;26.30;50.80
16321;DHT22;8269;50.990;4.494;2022-07-29T08:36:54;26.80;50.20
16321;DHT22;8269;50.990;4.494;2022-07-29T08:39:20;27.80;48.60
16321;DHT22;8269;50.990;4.494;2022-07-29T08:41:46;27.80;48.10
16321;DHT22;8269;50.990;4.494;2022-07-29T08:44:15;27.70;47.10
16321;DHT22;8269;50.990;4.494;2022-07-29T08:46:41;27.80;48.10
16321;DHT22;8269;50.990;4.494;2022-07-29T08:49:07;27.40;48.50
16321;DHT22;8269;50.990;4.494;2022-07-29T08:51:33;27.40;49.50
16321;DHT22;8269;50.990;4.494;2022-07-29T08:54:01;27.60;47.70
16321;DHT22;8269;50.990;4.494;2022-07-29T08:56:28;27.30;48.60
16321;DHT22;8269;50.990;4.494;2022-07-29T08:58:54;27.60;48.20
16321;DHT22;8269;50.990;4.494;2022-07-29T09:01:25;27.80;47.30
16321;DHT22;8269;50.990;4.494;2022-07-29T09:03:55;27.60;47.60
16321;DHT22;8269;50.990;4.494;2022-07-29T09:06:22;27.30;48.30
16321;DHT22;8269;50.990;4.494;2022-07-29T09:08:48;27.40;48.70
16321;DHT22;8269;50.990;4.494;2022-07-29T09:11:14;27.50;47.90
16321;DHT22;8269;50.990;4.494;2022-07-29T09:13:40;28.10;47.00
16321;DHT22;8269;50.990;4.494;2022-07-29T09:16:07;28.10;45.50
16321;DHT22;8269;50.990;4.494;2022-07-29T09:18:41;27.80;46.80
16321;DHT22;8269;50.990;4.494;2022-07-29T09:21:09;27.70;47.00
16321;DHT22;8269;50.990;4.494;2022-07-29T09:26:36;28.40;46.40
16321;DHT22;8269;50.990;4.494;2022-07-29T09:29:32;28.50;46.10
16321;DHT22;8269;50.990;4.494;2022-07-29T09:31:57;28.90;45.60
16321;DHT22;8269;50.990;4.494;2022-07-29T09:34:26;28.40;44.80
16321;DHT22;8269;50.990;4.494;2022-07-29T09:36:53;28.10;45.30
16321;DHT22;8269;50.990;4.494;2022-07-29T09:39:34;28.00;45.10
16321;DHT22;8269;50.990;4.494;2022-07-29T09:42:09;27.70;45.60
16321;DHT22;8269;50.990;4.494;2022-07-29T09:44:43;27.30;46.10
16321;DHT22;8269;50.990;4.494;2022-07-29T09:47:09;27.10;46.70
16321;DHT22;8269;50.990;4.494;2022-07-29T09:49:49;26.60;48.30
16321;DHT22;8269;50.990;4.494;2022-07-29T09:52:15;26.30;48.10
16321;DHT22;8269;50.990;4.494;2022-07-29T09:54:41;26.00;48.70
16321;DHT22;8269;50.990;4.494;2022-07-29T09:57:27;26.00;49.20
16321;DHT22;8269;50.990;4.494;2022-07-29T10:03:06;26.10;48.30
16321;DHT22;8269;50.990;4.494;2022-07-29T10:05:32;26.10;48.50
16321;DHT22;8269;50.990;4.494;2022-07-29T10:07:57;26.20;48.30
16321;DHT22;8269;50.990;4.494;2022-07-29T10:10:31;26.40;48.60
16321;DHT22;8269;50.990;4.494;2022-07-29T10:13:04;26.30;47.70
16321;DHT22;8269;50.990;4.494;2022-07-29T10:15:34;25.80;47.30
16321;DHT22;8269;50.990;4.494;2022-07-29T10:18:07;25.60;48.10
16321;DHT22;8269;50.990;4.494;2022-07-29T10:20:34;25.50;48.80
16321;DHT22;8269;50.990;4.494;2022-07-29T10:23:00;25.50;48.60
16321;DHT22;8269;50.990;4.494;2022-07-29T10:25:26;25.50;49.50
16321;DHT22;8269;50.990;4.494;2022-07-29T10:27:52;25.60;49.10
16321;DHT22;8269;50.990;4.494;2022-07-29T10:30:20;25.70;49.40
16321;DHT22;8269;50.990;4.494;2022-07-29T10:33:18;25.90;48.60
16321;DHT22;8269;50.990;4.494;2022-07-29T10:36:07;26.00;47.20
16321;DHT22;8269;50.990;4.494;2022-07-29T10:38:55;25.90;48.40
16321;DHT22;8269;50.990;4.494;2022-07-29T10:41:43;26.00;48.50
16321;DHT22;8269;50.990;4.494;2022-07-29T10:44:21;26.20;49.10
16321;DHT22;8269;50.990;4.494;2022-07-29T10:46:48;26.30;47.90
16321;DHT22;8269;50.990;4.494;2022-07-29T10:49:25;26.30;47.20
16321;DHT22;8269;50.990;4.494;2022-07-29T10:52:00;26.20;48.10
16321;DHT22;8269;50.990;4.494;2022-07-29T10:59:51;26.00;47.50
16321;DHT22;8269;50.990;4.494;2022-07-29T11:07:28;25.90;48.20
16321;DHT22;8269;50.990;4.494;2022-07-29T11:15:09;25.90;46.10
16321;DHT22;8269;50.990;4.494;2022-07-29T11:20:42;26.10;46.80
16321;DHT22;8269;50.990;4.494;2022-07-29T11:23:30;26.40;46.50
16321;DHT22;8269;50.990;4.494;2022-07-29T11:34:28;26.30;46.10
16321;DHT22;8269;50.990;4.494;2022-07-29T11:39:46;26.40;45.10
16321;DHT22;8269;50.990;4.494;2022-07-29T11:45:09;26.50;46.10
16321;DHT22;8269;50.990;4.494;2022-07-29T11:47:41;26.60;45.50
16321;DHT22;8269;50.990;4.494;2022-07-29T11:50:09;26.40;45.80
16321;DHT22;8269;50.990;4.494;2022-07-29T11:52:44;26.20;45.60
16321;DHT22;8269;50.990;4.494;2022-07-29T11:57:46;26.30;59.80
16321;DHT22;8269;50.990;4.494;2022-07-29T12:00:31;26.60;44.40
16321;DHT22;8269;50.990;4.494;2022-07-29T12:03:02;26.70;44.20
16321;DHT22;8269;50.990;4.494;2022-07-29T12:05:46;26.70;44.80
16321;DHT22;8269;50.990;4.494;2022-07-29T12:08:14;26.50;45.00
16321;DHT22;8269;50.990;4.494;2022-07-29T12:10:42;26.50;45.40
16321;DHT22;8269;50.990;4.494;2022-07-29T12:13:08;26.60;45.30
16321;DHT22;8269;50.990;4.494;2022-07-29T12:15:34;26.70;44.70
16321;DHT22;8269;50.990;4.494;2022-07-29T12:18:10;26.90;43.80
16321;DHT22;8269;50.990;4.494;2022-07-29T12:20:35;27.00;43.30
16321;DHT22;8269;50.990;4.494;2022-07-29T12:23:06;27.20;42.80
16321;DHT22;8269;50.990;4.494;2022-07-29T12:25:33;27.20;42.40
16321;DHT22;8269;50.990;4.494;2022-07-29T12:28:03;27.10;42.40
16321;DHT22;8269;50.990;4.494;2022-07-29T12:30:44;27.00;42.80
16321;DHT22;8269;50.990;4.494;2022-07-29T12:33:27;26.90;42.90
16321;DHT22;8269;50.990;4.494;2022-07-29T12:36:01;27.00;42.90
16321;DHT22;8269;50.990;4.494;2022-07-29T12:38:28;27.00;43.10
16321;DHT22;8269;50.990;4.494;2022-07-29T12:40:54;27.30;42.80
16321;DHT22;8269;50.990;4.494;2022-07-29T12:43:24;27.50;42.20
16321;DHT22;8269;50.990;4.494;2022-07-29T12:45:52;27.80;41.80
16321;DHT22;8269;50.990;4.494;2022-07-29T12:48:32;28.00;41.30
16321;DHT22;8269;50.990;4.494;2022-07-29T12:51:00;28.20;41.00
16321;DHT22;8269;50.990;4.494;2022-07-29T12:53:27;28.10;40.90
16321;DHT22;8269;50.990;4.494;2022-07-29T12:55:55;28.20;40.60
16321;DHT22;8269;50.990;4.494;2022-07-29T13:01:16;28.40;40.30
16321;DHT22;8269;50.990;4.494;2022-07-29T13:06:40;28.60;39.20
16321;DHT22;8269;50.990;4.494;2022-07-29T13:09:20;28.50;40.70
16321;DHT22;8269;50.990;4.494;2022-07-29T13:11:50;28.30;41.50
16321;DHT22;8269;50.990;4.494;2022-07-29T13:14:36;28.10;41.20
16321;DHT22;8269;50.990;4.494;2022-07-29T13:21:59;28.30;41.10
16321;DHT22;8269;50.990;4.494;2022-07-29T13:24:25;28.10;41.40
16321;DHT22;8269;50.990;4.494;2022-07-29T13:26:50;27.80;41.60
16321;DHT22;8269;50.990;4.494;2022-07-29T13:29:17;27.80;42.30
16321;DHT22;8269;50.990;4.494;2022-07-29T13:31:43;27.70;41.70
16321;DHT22;8269;50.990;4.494;2022-07-29T13:34:08;27.70;42.10
16321;DHT22;8269;50.990;4.494;2022-07-29T13:36:34;27.90;41.10
16321;DHT22;8269;50.990;4.494;2022-07-29T13:39:00;28.00;40.90
16321;DHT22;8269;50.990;4.494;2022-07-29T13:41:28;27.90;40.50
16321;DHT22;8269;50.990;4.494;2022-07-29T13:43:53;27.80;40.20
16321;DHT22;8269;50.990;4.494;2022-07-29T13:46:19;27.80;40.60
16321;DHT22;8269;50.990;4.494;2022-07-29T13:48:45;27.70;41.00
16321;DHT22;8269;50.990;4.494;2022-07-29T13:51:11;27.80;40.60
16321;DHT22;8269;50.990;4.494;2022-07-29T13:53:37;27.90;40.20
16321;DHT22;8269;50.990;4.494;2022-07-29T13:56:03;28.00;41.00
16321;DHT22;8269;50.990;4.494;2022-07-29T13:58:31;28.00;40.80
16321;DHT22;8269;50.990;4.494;2022-07-29T14:00:57;27.90;40.50
16321;DHT22;8269;50.990;4.494;2022-07-29T14:03:22;27.90;40.60
16321;DHT22;8269;50.990;4.494;2022-07-29T14:05:49;28.10;40.70
16321;DHT22;8269;50.990;4.494;2022-07-29T14:08:15;28.10;40.50
16321;DHT22;8269;50.990;4.494;2022-07-29T14:10:41;28.00;40.90
16321;DHT22;8269;50.990;4.494;2022-07-29T14:13:06;28.00;41.10
16321;DHT22;8269;50.990;4.494;2022-07-29T14:15:32;28.00;41.50
16321;DHT22;8269;50.990;4.494;2022-07-29T14:17:57;27.90;41.10
16321;DHT22;8269;50.990;4.494;2022-07-29T14:20:23;27.60;41.20
16321;DHT22;8269;50.990;4.494;2022-07-29T14:22:49;27.40;41.00
16321;DHT22;8269;50.990;4.494;2022-07-29T14:25:14;27.30;42.20
16321;DHT22;8269;50.990;4.494;2022-07-29T14:27:40;27.30;40.80
16321;DHT22;8269;50.990;4.494;2022-07-29T14:30:06;27.20;41.20
16321;DHT22;8269;50.990;4.494;2022-07-29T14:32:32;27.00;41.30
16321;DHT22;8269;50.990;4.494;2022-07-29T14:34:57;27.00;41.90
16321;DHT22;8269;50.990;4.494;2022-07-29T14:37:23;27.00;40.10
16321;DHT22;8269;50.990;4.494;2022-07-29T14:39:49;26.90;41.00
16321;DHT22;8269;50.990;4.494;2022-07-29T14:42:14;27.00;41.50
16321;DHT22;8269;50.990;4.494;2022-07-29T14:44:41;26.90;40.70
16321;DHT22;8269;50.990;4.494;2022-07-29T14:47:07;27.00;40.70
16321;DHT22;8269;50.990;4.494;2022-07-29T14:49:32;27.10;40.60
16321;DHT22;8269;50.990;4.494;2022-07-29T14:51:59;27.20;40.60
16321;DHT22;8269;50.990;4.494;2022-07-29T14:54:24;27.10;41.00
16321;DHT22;8269;50.990;4.494;2022-07-29T14:56:50;27.30;41.40
16321;DHT22;8269;50.990;4.494;2022-07-29T14:59:16;27.40;41.20
16321;DHT22;8269;50.990;4.494;2022-07-29T15:01:42;27.50;41.30
16321;DHT22;8269;50.990;4.494;2022-07-29T15:04:08;27.40;41.20
16321;DHT22;8269;50.990;4.494;2022-07-29T15:06:34;27.30;41.60
16321;DHT22;8269;50.990;4.494;2022-07-29T15:09:01;27.20;42.00
16321;DHT22;8269;50.990;4.494;2022-07-29T15:11:27;27.10;41.50
16321;DHT22;8269;50.990;4.494;2022-07-29T15:14:20;27.00;41.40
16321;DHT22;8269;50.990;4.494;2022-07-29T15:17:22;26.90;41.70
16321;DHT22;8269;50.990;4.494;2022-07-29T15:19:52;26.70;42.50
16321;DHT22;8269;50.990;4.494;2022-07-29T15:22:18;26.70;42.70
16321;DHT22;8269;50.990;4.494;2022-07-29T15:24:43;26.70;42.30
16321;DHT22;8269;50.990;4.494;2022-07-29T15:27:09;26.60;41.80
16321;DHT22;8269;50.990;4.494;2022-07-29T15:29:40;26.50;42.20
16321;DHT22;8269;50.990;4.494;2022-07-29T15:32:07;26.50;43.00
16321;DHT22;8269;50.990;4.494;2022-07-29T15:34:33;26.70;43.40
16321;DHT22;8269;50.990;4.494;2022-07-29T15:36:59;26.70;42.70
16321;DHT22;8269;50.990;4.494;2022-07-29T15:39:25;26.70;42.60
16321;DHT22;8269;50.990;4.494;2022-07-29T15:41:51;26.90;43.00
16321;DHT22;8269;50.990;4.494;2022-07-29T15:44:17;26.80;42.60
16321;DHT22;8269;50.990;4.494;2022-07-29T15:46:42;26.70;42.70
16321;DHT22;8269;50.990;4.494;2022-07-29T15:49:27;26.50;42.60
16321;DHT22;8269;50.990;4.494;2022-07-29T15:51:57;26.50;42.60
16321;DHT22;8269;50.990;4.494;2022-07-29T15:54:25;26.40;42.80
16321;DHT22;8269;50.990;4.494;2022-07-29T15:56:51;26.40;43.40
16321;DHT22;8269;50.990;4.494;2022-07-29T15:59:17;26.30;43.00
16321;DHT22;8269;50.990;4.494;2022-07-29T16:01:43;26.40;43.10
16321;DHT22;8269;50.990;4.494;2022-07-29T16:04:09;26.50;43.30
16321;DHT22;8269;50.990;4.494;2022-07-29T16:06:35;26.60;43.60
16321;DHT22;8269;50.990;4.494;2022-07-29T16:09:00;26.70;42.40
16321;DHT22;8269;50.990;4.494;2022-07-29T16:11:26;26.50;42.70
16321;DHT22;8269;50.990;4.494;2022-07-29T16:13:52;26.60;42.60
16321;DHT22;8269;50.990;4.494;2022-07-29T16:16:17;26.60;42.60
16321;DHT22;8269;50.990;4.494;2022-07-29T16:18:44;26.70;43.40
16321;DHT22;8269;50.990;4.494;2022-07-29T16:21:10;26.70;43.20
16321;DHT22;8269;50.990;4.494;2022-07-29T16:23:36;26.50;43.30
16321;DHT22;8269;50.990;4.494;2022-07-29T16:26:02;26.30;43.90
16321;DHT22;8269;50.990;4.494;2022-07-29T16:28:28;26.20;43.50
16321;DHT22;8269;50.990;4.494;2022-07-29T16:30:55;26.00;43.60
16321;DHT22;8269;50.990;4.494;2022-07-29T16:33:21;26.00;44.30
16321;DHT22;8269;50.990;4.494;2022-07-29T16:35:48;26.00;44.50
16321;DHT22;8269;50.990;4.494;2022-07-29T16:38:14;26.00;45.20
16321;DHT22;8269;50.990;4.494;2022-07-29T16:40:39;26.20;44.90
16321;DHT22;8269;50.990;4.494;2022-07-29T16:43:05;26.40;44.60
16321;DHT22;8269;50.990;4.494;2022-07-29T16:45:31;26.30;43.70
16321;DHT22;8269;50.990;4.494;2022-07-29T16:47:56;26.20;43.90
16321;DHT22;8269;50.990;4.494;2022-07-29T16:50:22;26.20;43.90
16321;DHT22;8269;50.990;4.494;2022-07-29T16:52:50;26.00;44.50